createdAt,value
2019-05-02T00:01:07.254Z,99.90
2019-05-02T00:06:09.393Z,99.90
2019-05-02T00:08:40.542Z,99.90
2019-05-02T00:18:55.554Z,99.90
2019-05-02T00:21:25.660Z,99.90
2019-05-02T00:23:59.263Z,99.90
2019-05-02T00:26:29.718Z,99.90
2019-05-02T00:29:06.045Z,99.90
2019-05-02T00:31:36.150Z,99.90
2019-05-02T00:36:55.358Z,99.90
2019-05-02T00:41:55.240Z,99.90
2019-05-02T00:44:25.399Z,99.90
2019-05-02T00:46:59.360Z,99.90
2019-05-02T00:54:32.447Z,99.90
2019-05-02T00:59:37.747Z,99.90
2019-05-02T01:02:11.634Z,99.90
2019-05-02T01:04:51.731Z,99.90
2019-05-02T01:07:25.477Z,99.90
2019-05-02T01:12:34.966Z,99.90
2019-05-02T01:17:38.494Z,99.90
2019-05-02T01:20:09.874Z,99.90
2019-05-02T01:25:17.010Z,99.90
2019-05-02T01:30:28.182Z,99.90
2019-05-02T01:33:15.871Z,99.90
2019-05-02T01:38:31.970Z,99.90
2019-05-02T01:53:35.821Z,99.90
2019-05-02T01:56:06.100Z,99.90
2019-05-02T02:03:40.642Z,99.90
2019-05-02T02:08:41.152Z,99.90
2019-05-02T02:11:11.295Z,99.90
2019-05-02T02:16:15.474Z,99.90
2019-05-02T02:18:52.944Z,99.90
2019-05-02T02:21:27.660Z,99.90
2019-05-02T02:24:06.175Z,99.90
2019-05-02T02:34:08.776Z,99.90
2019-05-02T02:39:14.013Z,99.90
2019-05-02T02:44:21.902Z,99.90
2019-05-02T02:46:56.981Z,99.90
2019-05-02T02:52:03.892Z,99.90
2019-05-02T02:54:29.595Z,99.90
2019-05-02T02:57:01.705Z,99.90
2019-05-02T02:59:32.799Z,99.90
2019-05-02T03:07:11.292Z,99.90
2019-05-02T03:09:43.539Z,99.90
2019-05-02T03:14:53.639Z,99.90
2019-05-02T03:17:28.785Z,99.90
2019-05-02T03:20:01.542Z,99.90
2019-05-02T03:22:41.987Z,99.90
2019-05-02T03:27:40.444Z,99.90
2019-05-02T03:30:32.194Z,99.90
2019-05-02T03:33:02.766Z,99.90
2019-05-02T03:35:40.823Z,99.90
2019-05-02T03:37:58.095Z,99.90
2019-05-02T03:40:32.337Z,99.90
2019-05-02T03:43:04.351Z,99.90
2019-05-02T03:45:39.821Z,99.90
2019-05-02T03:48:25.759Z,99.90
2019-05-02T03:50:51.385Z,99.90
2019-05-02T03:53:25.184Z,99.90
2019-05-02T03:58:24.242Z,99.90
2019-05-02T04:03:26.671Z,99.90
2019-05-02T04:06:04.037Z,99.90
2019-05-02T04:08:38.016Z,99.90
2019-05-02T04:11:22.159Z,99.90
2019-05-02T04:13:53.755Z,99.90
2019-05-02T04:18:57.695Z,99.90
2019-05-02T04:21:34.304Z,99.90
2019-05-02T04:24:12.935Z,99.90
2019-05-02T04:29:13.571Z,99.90
2019-05-02T04:31:43.700Z,99.90
2019-05-02T04:37:01.266Z,99.90
2019-05-02T04:39:30.210Z,99.90
2019-05-02T04:44:46.663Z,99.90
2019-05-02T04:47:13.869Z,99.90
2019-05-02T04:49:36.812Z,99.90
2019-05-02T04:52:11.645Z,99.90
2019-05-02T04:54:42.152Z,99.90
2019-05-02T04:57:12.264Z,99.90
2019-05-02T04:59:50.628Z,99.90
2019-05-02T05:02:29.848Z,99.90
2019-05-02T05:07:24.010Z,99.90
2019-05-02T05:09:58.322Z,99.90
2019-05-02T05:12:27.788Z,99.90
2019-05-02T05:17:34.131Z,99.90
2019-05-02T05:20:14.237Z,99.90
2019-05-02T05:22:44.153Z,99.90
2019-05-02T05:25:17.627Z,99.90
2019-05-02T05:27:58.739Z,99.90
2019-05-02T05:30:27.728Z,99.90
2019-05-02T05:33:10.283Z,99.90
2019-05-02T05:35:52.417Z,99.90
2019-05-02T05:38:23.038Z,99.90
2019-05-02T05:40:52.095Z,99.90
2019-05-02T05:45:56.415Z,99.90
2019-05-02T05:48:23.691Z,99.90
2019-05-02T05:50:53.891Z,99.90
2019-05-02T05:53:24.562Z,99.90
2019-05-02T05:56:01.001Z,99.90
2019-05-02T05:58:33.763Z,99.90
2019-05-02T06:01:09.348Z,99.90
2019-05-02T06:03:45.085Z,99.90
2019-05-02T06:11:23.446Z,99.90
2019-05-02T06:13:54.554Z,99.90
2019-05-02T06:16:26.598Z,99.90
2019-05-02T06:19:05.714Z,99.90
2019-05-02T06:21:39.985Z,99.90
2019-05-02T06:24:11.021Z,99.90
2019-05-02T06:26:52.004Z,99.90
2019-05-02T06:29:28.019Z,99.90
2019-05-02T06:34:33.297Z,99.90
2019-05-02T06:37:03.427Z,99.90
2019-05-02T06:39:33.553Z,99.90
2019-05-02T06:42:03.647Z,99.90
2019-05-02T06:47:04.252Z,99.90
2019-05-02T06:49:35.318Z,99.90
2019-05-02T06:52:06.444Z,99.90
2019-05-02T06:57:06.373Z,99.90
2019-05-02T06:59:49.893Z,99.90
2019-05-02T07:02:20.415Z,99.90
2019-05-02T07:04:54.736Z,99.90
2019-05-02T07:07:32.172Z,99.90
2019-05-02T07:09:56.783Z,99.90
2019-05-02T07:15:01.546Z,99.90
2019-05-02T07:17:38.185Z,98.50
2019-05-02T07:20:12.467Z,95.10
2019-05-02T07:22:45.468Z,86.60
2019-05-02T07:25:18.134Z,79.30
2019-05-02T07:27:52.367Z,77.90
2019-05-02T07:30:23.563Z,78.70
2019-05-02T07:32:56.291Z,71.40
2019-05-02T07:40:29.193Z,63.40
2019-05-02T07:45:28.948Z,63.40
2019-05-02T07:48:01.497Z,60.00
2019-05-02T07:50:31.835Z,62.60
2019-05-02T07:53:04.517Z,62.20
2019-05-02T07:55:35.312Z,62.50
2019-05-02T07:58:11.604Z,64.10
2019-05-02T08:03:12.379Z,63.10
2019-05-02T08:05:54.481Z,58.40
2019-05-02T08:08:29.522Z,58.60
2019-05-02T08:11:01.663Z,55.30
2019-05-02T08:13:31.493Z,55.70
2019-05-02T08:16:01.715Z,54.40
2019-05-02T08:18:31.895Z,51.90
2019-05-02T08:21:05.295Z,55.30
2019-05-02T08:23:36.358Z,55.60
2019-05-02T08:26:06.457Z,54.90
2019-05-02T08:28:38.190Z,55.90
2019-05-02T08:31:13.563Z,58.10
2019-05-02T08:33:47.928Z,55.90
2019-05-02T08:36:25.780Z,54.40
2019-05-02T08:41:32.387Z,53.70
2019-05-02T08:44:02.484Z,55.30
2019-05-02T08:46:39.371Z,51.60
2019-05-02T08:49:20.115Z,51.10
2019-05-02T08:51:56.595Z,51.50
2019-05-02T08:54:36.756Z,52.30
2019-05-02T08:57:07.815Z,54.80
2019-05-02T08:59:40.664Z,50.80
2019-05-02T09:02:15.503Z,52.60
2019-05-02T09:04:58.565Z,53.20
2019-05-02T09:07:24.275Z,52.30
2019-05-02T09:09:55.589Z,50.50
2019-05-02T09:14:55.547Z,52.10
2019-05-02T09:20:10.599Z,48.20
2019-05-02T09:22:35.707Z,47.80
2019-05-02T09:25:09.108Z,48.30
2019-05-02T09:27:39.203Z,45.80
2019-05-02T09:30:17.279Z,45.30
2019-05-02T09:33:04.947Z,45.30
2019-05-02T09:38:01.643Z,46.90
2019-05-02T09:40:37.467Z,47.30
2019-05-02T09:43:07.571Z,45.30
2019-05-02T09:45:41.279Z,45.60
2019-05-02T09:48:17.184Z,47.60
2019-05-02T09:50:57.930Z,47.20
2019-05-02T09:53:32.382Z,47.50
2019-05-02T09:56:02.652Z,47.30
2019-05-02T09:58:32.763Z,46.60
2019-05-02T10:03:34.179Z,47.90
2019-05-02T10:06:08.304Z,44.00
2019-05-02T10:08:43.515Z,42.80
2019-05-02T10:11:17.031Z,44.60
2019-05-02T10:16:17.945Z,45.00
2019-05-02T10:18:48.408Z,45.90
2019-05-02T10:23:51.828Z,47.50
2019-05-02T10:28:53.367Z,49.50
2019-05-02T10:34:15.850Z,47.70
2019-05-02T10:41:46.053Z,43.10
2019-05-02T10:44:16.139Z,41.90
2019-05-02T10:49:45.084Z,41.80
2019-05-02T10:59:45.283Z,44.70
2019-05-02T11:04:58.967Z,43.50
2019-05-02T11:07:29.059Z,42.70
2019-05-02T11:12:49.053Z,40.80
2019-05-02T11:15:37.271Z,41.10
2019-05-02T11:18:07.531Z,38.20
2019-05-02T11:20:38.160Z,39.70
2019-05-02T11:23:08.287Z,38.90
2019-05-02T11:28:09.043Z,39.60
2019-05-02T11:30:48.425Z,38.80
2019-05-02T11:33:18.528Z,38.70
2019-05-02T11:35:50.805Z,40.00
2019-05-02T11:43:22.433Z,43.60
2019-05-02T11:45:54.192Z,41.70
2019-05-02T11:48:25.321Z,42.40
2019-05-02T11:56:03.662Z,40.40
2019-05-02T11:58:42.434Z,39.20
2019-05-02T12:11:17.717Z,46.80
2019-05-02T12:16:33.411Z,45.10
2019-05-02T12:21:35.271Z,43.90
2019-05-02T12:26:42.691Z,43.70
2019-05-02T12:29:12.789Z,44.40
2019-05-02T12:31:47.276Z,46.30
2019-05-02T12:34:16.755Z,47.30
2019-05-02T12:36:47.847Z,47.60
2019-05-02T12:41:57.596Z,47.50
2019-05-02T12:44:28.851Z,44.40
2019-05-02T12:47:05.831Z,43.40
2019-05-02T12:49:35.999Z,45.10
2019-05-02T12:59:37.155Z,45.20
2019-05-02T13:02:09.087Z,46.00
2019-05-02T13:04:39.198Z,44.60
2019-05-02T13:07:15.071Z,42.40
2019-05-02T13:09:45.164Z,42.40
2019-05-02T13:12:18.028Z,40.50
2019-05-02T13:20:03.066Z,42.10
2019-05-02T13:22:41.978Z,42.60
2019-05-02T13:25:13.867Z,44.00
2019-05-02T13:27:48.151Z,42.80
2019-05-02T13:30:32.829Z,43.80
2019-05-02T13:43:14.711Z,46.30
2019-05-02T13:45:49.935Z,45.30
2019-05-02T13:55:58.751Z,39.60
2019-05-02T14:01:03.336Z,39.40
2019-05-02T14:03:34.075Z,42.00
2019-05-02T14:06:04.551Z,41.40
2019-05-02T14:08:55.913Z,40.50
2019-05-02T14:11:43.369Z,42.00
2019-05-02T14:14:13.409Z,41.70
2019-05-02T14:16:43.530Z,43.30
2019-05-02T14:19:13.623Z,43.00
2019-05-02T14:21:43.723Z,42.20
2019-05-02T14:24:13.891Z,41.20
2019-05-02T14:26:52.385Z,41.10
2019-05-02T14:29:25.443Z,43.00
2019-05-02T14:31:55.563Z,42.40
2019-05-02T14:36:59.469Z,41.70
2019-05-02T14:39:32.547Z,41.70
2019-05-02T14:42:04.066Z,42.50
2019-05-02T14:47:10.090Z,45.10
2019-05-02T14:49:38.327Z,43.60
2019-05-02T14:54:42.864Z,44.90
2019-05-02T14:57:11.980Z,42.40
2019-05-02T14:59:42.871Z,42.60
2019-05-02T15:02:15.058Z,42.40
2019-05-02T15:04:48.860Z,43.10
2019-05-02T15:07:22.901Z,43.40
2019-05-02T15:09:57.210Z,43.10
2019-05-02T15:12:26.488Z,40.80
2019-05-02T15:20:02.665Z,37.50
2019-05-02T15:22:42.498Z,37.70
2019-05-02T15:25:17.817Z,37.80
2019-05-02T15:30:17.847Z,38.20
2019-05-02T15:35:26.817Z,38.60
2019-05-02T15:38:06.525Z,39.60
2019-05-02T15:45:45.535Z,41.30
2019-05-02T15:48:27.568Z,41.10
2019-05-02T15:53:28.000Z,42.80
2019-05-02T15:55:59.084Z,43.40
2019-05-02T15:58:30.120Z,43.60
2019-05-02T16:01:12.088Z,44.00
2019-05-02T16:03:52.475Z,44.70
2019-05-02T16:06:30.388Z,44.40
2019-05-02T16:08:54.459Z,43.80
2019-05-02T16:11:33.798Z,44.60
2019-05-02T16:14:09.755Z,45.00
2019-05-02T16:16:43.771Z,44.90
2019-05-02T16:19:15.030Z,45.80
2019-05-02T16:21:46.040Z,47.20
2019-05-02T16:24:19.381Z,46.80
2019-05-02T16:26:52.996Z,47.30
2019-05-02T16:29:32.267Z,47.60
2019-05-02T16:32:10.040Z,48.00
2019-05-02T16:34:44.504Z,45.40
2019-05-02T16:37:16.752Z,48.60
2019-05-02T16:42:19.844Z,49.40
2019-05-02T16:44:55.772Z,49.50
2019-05-02T16:47:25.880Z,48.60
2019-05-02T16:49:56.987Z,48.70
2019-05-02T16:52:27.091Z,48.40
2019-05-02T16:54:57.211Z,49.10
2019-05-02T16:57:27.326Z,49.20
2019-05-02T17:00:01.324Z,49.70
2019-05-02T17:02:29.236Z,49.30
2019-05-02T17:05:00.181Z,48.10
2019-05-02T17:10:28.768Z,47.80
2019-05-02T17:13:00.853Z,47.20
2019-05-02T17:15:35.372Z,47.40
2019-05-02T17:18:17.991Z,48.40
2019-05-02T17:20:39.527Z,48.50
2019-05-02T17:25:39.409Z,49.00
2019-05-02T17:28:13.155Z,48.80
2019-05-02T17:30:43.230Z,48.50
2019-05-02T17:33:16.274Z,49.30
2019-05-02T17:38:27.702Z,50.00
2019-05-02T17:40:54.471Z,50.70
2019-05-02T17:43:25.196Z,51.20
2019-05-02T17:45:56.419Z,51.50
2019-05-02T17:48:29.367Z,52.50
2019-05-02T17:53:50.023Z,53.30
2019-05-02T18:01:43.616Z,54.60
2019-05-02T18:04:16.599Z,55.70
2019-05-02T18:06:56.072Z,56.70
2019-05-02T18:09:30.953Z,57.60
2019-05-02T18:11:58.282Z,58.50
2019-05-02T18:14:34.424Z,59.50
2019-05-02T18:17:16.404Z,61.20
2019-05-02T18:19:46.508Z,62.90
2019-05-02T18:22:24.171Z,65.10
2019-05-02T18:24:53.577Z,67.20
2019-05-02T18:27:30.664Z,70.10
2019-05-02T18:32:48.877Z,77.80
2019-05-02T18:35:28.488Z,82.50
2019-05-02T18:38:06.410Z,87.30
2019-05-02T18:40:36.511Z,90.60
2019-05-02T18:43:07.980Z,92.40
2019-05-02T18:45:38.088Z,94.90
2019-05-02T18:48:08.327Z,97.10
2019-05-02T18:53:13.903Z,99.90
2019-05-02T18:55:44.537Z,99.90
2019-05-02T18:58:16.556Z,99.90
2019-05-02T19:00:46.976Z,99.90
2019-05-02T19:05:51.684Z,99.90
2019-05-02T19:08:29.147Z,99.90
2019-05-02T19:13:22.627Z,99.90
2019-05-02T19:15:53.433Z,99.90
2019-05-02T19:18:24.604Z,99.90
2019-05-02T19:20:58.972Z,99.90
2019-05-02T19:23:29.381Z,99.90
2019-05-02T19:26:09.643Z,99.90
2019-05-02T19:28:39.644Z,99.90
2019-05-02T19:33:42.607Z,99.90
2019-05-02T19:36:16.175Z,99.90
2019-05-02T19:38:57.433Z,99.90
2019-05-02T19:43:54.864Z,99.90
2019-05-02T19:46:38.581Z,99.90
2019-05-02T19:51:39.928Z,99.90
2019-05-02T19:54:10.106Z,99.90
2019-05-02T19:59:21.850Z,99.90
2019-05-02T20:01:52.243Z,99.90
2019-05-02T20:04:23.752Z,99.90
2019-05-02T20:06:55.112Z,99.90
2019-05-02T20:09:26.552Z,99.90
2019-05-02T20:11:56.902Z,99.90
2019-05-02T20:14:27.070Z,99.90
2019-05-02T20:22:05.344Z,99.90
2019-05-02T20:24:33.666Z,99.90
2019-05-02T20:27:08.205Z,99.90
2019-05-02T20:29:39.348Z,99.90
2019-05-02T20:34:49.888Z,99.90
2019-05-02T20:39:52.296Z,99.90
2019-05-02T20:42:23.413Z,99.90
2019-05-02T20:47:25.946Z,99.90
2019-05-02T20:52:25.880Z,99.90
2019-05-02T20:57:27.604Z,99.90
2019-05-02T21:02:29.448Z,99.90
2019-05-02T21:04:59.560Z,99.90
2019-05-02T21:07:33.345Z,99.90
2019-05-02T21:10:12.748Z,99.90
2019-05-02T21:12:42.918Z,99.90
2019-05-02T21:15:21.618Z,99.90
2019-05-02T21:17:51.810Z,99.90
2019-05-02T21:20:22.933Z,99.90
2019-05-02T21:22:53.193Z,99.90
2019-05-02T21:25:23.456Z,99.90
2019-05-02T21:27:53.560Z,99.90
2019-05-02T21:32:59.974Z,99.90
2019-05-02T21:35:31.860Z,99.90
2019-05-02T21:38:11.990Z,99.90
2019-05-02T21:43:19.712Z,99.90
2019-05-02T21:48:24.370Z,99.90
2019-05-02T21:50:58.504Z,99.90
2019-05-02T21:53:54.932Z,99.90
2019-05-02T21:56:21.768Z,99.90
2019-05-02T21:59:08.313Z,99.90
2019-05-02T22:01:51.925Z,99.90
2019-05-02T22:04:23.436Z,99.90
2019-05-02T22:06:53.674Z,99.90
2019-05-02T22:09:25.292Z,99.90
2019-05-02T22:12:07.798Z,99.90
2019-05-02T22:14:37.974Z,99.90
2019-05-02T22:17:09.387Z,99.90
2019-05-02T22:19:41.597Z,99.90
2019-05-02T22:22:15.164Z,99.90
2019-05-02T22:24:47.221Z,99.90
2019-05-02T22:32:22.814Z,99.90
2019-05-02T22:34:55.828Z,99.90
2019-05-02T22:37:27.312Z,99.90
2019-05-02T22:39:59.305Z,99.90
2019-05-02T22:42:32.266Z,99.90
2019-05-02T22:45:04.585Z,99.90
2019-05-02T22:47:34.856Z,99.90
2019-05-02T22:50:07.744Z,99.90
2019-05-02T22:52:37.866Z,99.90
2019-05-02T22:55:08.873Z,99.90
2019-05-02T22:57:44.017Z,99.90
2019-05-02T23:05:14.088Z,99.90
2019-05-02T23:10:19.860Z,99.90
2019-05-02T23:12:55.834Z,99.90
2019-05-02T23:15:25.947Z,99.90
2019-05-02T23:17:56.056Z,99.90
2019-05-02T23:20:26.170Z,99.90
2019-05-02T23:22:57.224Z,99.90
2019-05-02T23:25:46.910Z,99.90
2019-05-02T23:28:18.646Z,99.90
2019-05-02T23:30:49.529Z,99.90
2019-05-02T23:33:19.722Z,99.90
2019-05-02T23:35:49.846Z,99.90
2019-05-02T23:38:21.785Z,99.90
2019-05-02T23:40:52.614Z,99.90
2019-05-02T23:46:02.326Z,99.90
2019-05-02T23:48:33.417Z,99.90
2019-05-02T23:51:04.482Z,99.90
2019-05-02T23:53:34.595Z,99.90
2019-05-02T23:56:04.864Z,99.90
2019-05-02T23:58:35.925Z,99.90
